createdAt,value
2019-05-07T00:04:26.265Z,17.45
2019-05-07T00:09:32.134Z,17.37
2019-05-07T00:14:35.753Z,28.00
2019-05-07T00:19:39.916Z,41.37
2019-05-07T00:24:43.571Z,34.95
2019-05-07T00:29:47.323Z,26.80
2019-05-07T00:34:55.520Z,20.68
2019-05-07T00:40:25.240Z,26.50
2019-05-07T00:45:48.699Z,27.07
2019-05-07T00:50:56.690Z,21.80
2019-05-07T00:56:01.956Z,16.95
2019-05-07T01:01:06.233Z,20.90
2019-05-07T01:06:10.112Z,14.73
2019-05-07T01:11:13.485Z,19.05
2019-05-07T01:16:17.597Z,21.30
2019-05-07T01:21:22.727Z,27.13
2019-05-07T01:26:27.322Z,25.72
2019-05-07T01:31:36.825Z,18.17
2019-05-07T01:36:42.610Z,20.57
2019-05-07T01:41:46.836Z,24.97
2019-05-07T01:46:50.236Z,23.12
2019-05-07T01:51:53.878Z,19.40
2019-05-07T01:56:57.218Z,21.57
2019-05-07T02:02:12.118Z,30.43
2019-05-07T02:07:35.217Z,44.60
2019-05-07T02:12:39.653Z,43.92
2019-05-07T02:17:43.372Z,52.35
2019-05-07T02:22:46.676Z,38.55
2019-05-07T02:27:52.809Z,33.73
2019-05-07T02:32:56.590Z,24.23
2019-05-07T02:38:14.456Z,20.80
2019-05-07T02:43:18.139Z,25.30
2019-05-07T02:48:25.375Z,19.35
2019-05-07T02:53:53.549Z,22.32
2019-05-07T02:58:56.716Z,17.02
2019-05-07T03:04:00.058Z,19.55
2019-05-07T03:09:05.418Z,24.60
2019-05-07T03:14:09.217Z,19.10
2019-05-07T03:19:13.818Z,18.55
2019-05-07T03:24:23.811Z,16.93
2019-05-07T03:29:27.832Z,20.97
2019-05-07T03:34:46.956Z,25.57
2019-05-07T03:39:53.525Z,22.67
2019-05-07T03:45:03.615Z,21.45
2019-05-07T03:50:09.453Z,22.60
2019-05-07T03:55:14.470Z,21.00
2019-05-07T04:00:18.864Z,17.77
2019-05-07T04:05:23.214Z,21.35
2019-05-07T04:10:26.929Z,21.95
2019-05-07T04:15:33.056Z,20.70
2019-05-07T04:20:36.314Z,16.23
2019-05-07T04:26:05.067Z,21.00
2019-05-07T04:31:08.393Z,17.52
2019-05-07T04:36:25.337Z,17.30
2019-05-07T04:41:28.697Z,14.30
2019-05-07T04:46:33.300Z,17.50
2019-05-07T04:51:52.874Z,18.95
2019-05-07T04:56:56.582Z,17.85
2019-05-07T05:02:07.860Z,16.80
2019-05-07T05:07:13.360Z,10.95
2019-05-07T05:12:16.469Z,14.07
2019-05-07T05:17:22.873Z,11.55
2019-05-07T05:22:56.078Z,13.50
2019-05-07T05:27:59.462Z,11.73
2019-05-07T05:33:04.396Z,18.15
2019-05-07T05:38:08.028Z,11.85
2019-05-07T05:43:27.641Z,16.97
2019-05-07T05:48:33.308Z,9.98
2019-05-07T05:53:52.396Z,7.83
2019-05-07T05:59:04.641Z,9.30
2019-05-07T06:04:16.226Z,10.48
2019-05-07T06:09:34.946Z,12.23
2019-05-07T06:14:42.562Z,6.42
2019-05-07T06:19:55.161Z,4.30
2019-05-07T06:25:18.085Z,4.80
2019-05-07T06:30:22.689Z,10.98
2019-05-07T06:35:28.003Z,6.20
2019-05-07T06:40:42.499Z,11.22
2019-05-07T06:45:52.015Z,7.17
2019-05-07T06:50:58.994Z,12.43
2019-05-07T06:56:05.132Z,19.12
2019-05-07T07:01:33.741Z,6.28
2019-05-07T07:06:55.810Z,3.87
2019-05-07T07:12:02.015Z,4.87
2019-05-07T07:17:05.572Z,8.37
2019-05-07T07:22:08.902Z,9.70
2019-05-07T07:27:13.174Z,5.47
2019-05-07T07:32:19.264Z,1.27
2019-05-07T07:37:28.964Z,3.70
2019-05-07T07:42:33.348Z,6.72
2019-05-07T07:47:37.258Z,5.65
2019-05-07T07:52:42.092Z,4.40
2019-05-07T07:58:02.700Z,1.77
2019-05-07T08:03:09.333Z,5.92
2019-05-07T08:08:13.065Z,6.20
2019-05-07T08:13:16.581Z,6.75
2019-05-07T08:18:22.160Z,7.92
2019-05-07T08:23:28.728Z,1.85
2019-05-07T08:28:32.896Z,3.25
2019-05-07T08:33:43.107Z,3.17
2019-05-07T08:38:52.810Z,3.52
2019-05-07T08:44:11.635Z,5.28
2019-05-07T08:49:08.694Z,5.05
2019-05-07T08:54:12.433Z,1.92
2019-05-07T08:59:16.454Z,5.90
2019-05-07T09:04:21.979Z,1.42
2019-05-07T09:09:25.373Z,2.98
2019-05-07T09:14:29.045Z,1.65
2019-05-07T09:19:46.811Z,5.78
2019-05-07T09:24:38.693Z,3.30
2019-05-07T09:30:22.069Z,4.40
2019-05-07T09:35:34.048Z,3.27
2019-05-07T09:40:37.485Z,4.47
2019-05-07T09:45:42.068Z,4.67
2019-05-07T09:50:45.808Z,5.15
2019-05-07T09:55:49.268Z,10.28
2019-05-07T10:00:52.619Z,6.45
2019-05-07T10:05:56.930Z,5.17
2019-05-07T10:11:02.663Z,5.17
2019-05-07T10:16:07.821Z,2.05
2019-05-07T10:21:12.750Z,6.10
2019-05-07T10:26:17.837Z,3.40
2019-05-07T10:31:22.431Z,4.78
2019-05-07T10:36:25.781Z,4.20
2019-05-07T10:41:29.227Z,6.60
2019-05-07T10:46:47.385Z,6.30
2019-05-07T10:51:51.766Z,6.30
2019-05-07T10:56:55.558Z,3.90
2019-05-07T11:02:05.873Z,5.72
2019-05-07T11:07:10.153Z,5.75
2019-05-07T11:12:13.513Z,4.58
2019-05-07T11:17:26.551Z,4.15
2019-05-07T11:22:32.288Z,5.28
2019-05-07T11:27:35.742Z,4.90
2019-05-07T11:32:42.961Z,7.45
2019-05-07T11:37:46.404Z,11.50
2019-05-07T11:43:22.228Z,5.92
2019-05-07T11:48:26.977Z,7.00
2019-05-07T11:53:32.554Z,4.85
2019-05-07T11:58:36.531Z,2.85
2019-05-07T12:03:40.345Z,5.53
2019-05-07T12:08:51.401Z,3.90
2019-05-07T12:13:52.369Z,6.47
2019-05-07T12:18:56.057Z,3.92
2019-05-07T12:23:59.473Z,8.08
2019-05-07T12:29:02.879Z,5.95
2019-05-07T12:34:13.260Z,3.40
2019-05-07T12:39:16.723Z,2.37
2019-05-07T12:44:22.048Z,5.72
2019-05-07T12:49:25.772Z,1.35
2019-05-07T12:54:55.345Z,2.42
2019-05-07T13:00:18.613Z,1.67
2019-05-07T13:05:22.187Z,1.77
2019-05-07T13:10:25.913Z,6.55
2019-05-07T13:15:29.361Z,4.58
2019-05-07T13:20:34.032Z,5.97
2019-05-07T13:25:39.092Z,7.55
2019-05-07T13:30:43.836Z,2.12
2019-05-07T13:35:48.824Z,5.55
2019-05-07T13:41:13.058Z,4.58
2019-05-07T13:46:17.247Z,10.15
2019-05-07T13:51:21.719Z,3.10
2019-05-07T13:56:26.202Z,3.98
2019-05-07T14:01:35.905Z,2.77
2019-05-07T14:06:39.624Z,4.45
2019-05-07T14:11:44.693Z,2.87
2019-05-07T14:16:48.883Z,2.87
2019-05-07T14:21:52.653Z,5.28
2019-05-07T14:26:56.201Z,2.87
2019-05-07T14:32:17.554Z,2.12
2019-05-07T14:37:27.586Z,4.58
2019-05-07T14:42:38.371Z,2.40
2019-05-07T14:47:44.734Z,2.70
2019-05-07T14:52:48.738Z,3.65
2019-05-07T15:02:56.517Z,4.75
2019-05-07T15:08:08.297Z,2.40
2019-05-07T15:13:05.829Z,5.12
2019-05-07T15:18:16.410Z,7.05
2019-05-07T15:23:33.268Z,2.92
2019-05-07T15:28:38.837Z,4.47
2019-05-07T15:33:42.244Z,4.70
2019-05-07T15:38:47.398Z,4.50
2019-05-07T15:43:52.176Z,4.97
2019-05-07T15:48:57.405Z,5.08
2019-05-07T15:54:00.778Z,3.83
2019-05-07T15:59:04.540Z,1.42
2019-05-07T16:04:19.226Z,2.05
2019-05-07T16:09:13.254Z,4.15
2019-05-07T16:14:26.385Z,3.62
2019-05-07T16:19:29.659Z,4.00
2019-05-07T16:24:34.278Z,5.67
2019-05-07T16:29:38.060Z,4.58
2019-05-07T16:34:42.913Z,6.60
2019-05-07T16:39:47.249Z,2.15
2019-05-07T16:44:52.300Z,4.55
2019-05-07T16:49:56.960Z,3.42
2019-05-07T16:55:02.835Z,4.08
2019-05-07T17:00:10.317Z,2.80
2019-05-07T17:05:14.905Z,2.85
2019-05-07T17:10:19.130Z,4.70
2019-05-07T17:15:22.880Z,4.92
2019-05-07T17:20:26.736Z,9.58
2019-05-07T17:25:36.676Z,9.03
2019-05-07T17:30:42.084Z,9.75
2019-05-07T17:35:46.255Z,5.83
2019-05-07T17:40:51.954Z,25.27
2019-05-07T17:45:55.284Z,7.03
2019-05-07T17:51:24.670Z,22.27
2019-05-07T17:56:28.488Z,15.23
2019-05-07T18:01:57.377Z,7.20
2019-05-07T18:07:03.020Z,15.13
2019-05-07T18:12:06.868Z,15.95
2019-05-07T18:17:35.469Z,8.38
2019-05-07T18:22:39.281Z,8.73
2019-05-07T18:27:42.675Z,22.00
2019-05-07T18:32:51.970Z,16.02
2019-05-07T18:37:55.372Z,16.57
2019-05-07T18:42:58.814Z,15.50
2019-05-07T18:48:03.152Z,25.97
2019-05-07T18:53:06.674Z,30.40
2019-05-07T18:58:10.191Z,23.57
2019-05-07T19:03:14.790Z,23.35
2019-05-07T19:08:18.226Z,26.65
2019-05-07T19:13:22.486Z,20.52
2019-05-07T19:18:26.100Z,22.98
2019-05-07T19:23:29.656Z,23.87
2019-05-07T19:28:33.068Z,18.10
2019-05-07T19:33:36.901Z,20.10
2019-05-07T19:38:42.031Z,28.07
2019-05-07T19:43:45.578Z,30.15
2019-05-07T19:48:49.095Z,28.85
2019-05-07T19:53:53.325Z,20.80
2019-05-07T19:58:56.691Z,26.45
2019-05-07T20:04:02.553Z,25.88
2019-05-07T20:09:12.540Z,28.30
2019-05-07T20:14:15.098Z,30.72
2019-05-07T20:19:18.548Z,24.85
2019-05-07T20:24:22.191Z,22.42
2019-05-07T20:29:26.303Z,24.07
2019-05-07T20:34:32.941Z,35.73
2019-05-07T20:39:36.910Z,40.38
2019-05-07T20:44:42.615Z,38.40
2019-05-07T20:49:46.074Z,39.35
2019-05-07T20:55:08.063Z,49.77
2019-05-07T21:00:19.990Z,49.23
2019-05-07T21:05:23.687Z,48.68
2019-05-07T21:10:27.143Z,45.30
2019-05-07T21:15:32.294Z,44.75
2019-05-07T21:20:36.372Z,53.78
2019-05-07T21:25:44.431Z,56.45
2019-05-07T21:30:45.261Z,68.05
2019-05-07T21:35:48.605Z,66.87
2019-05-07T21:40:51.943Z,64.17
2019-05-07T21:45:55.280Z,72.85
2019-05-07T21:50:58.749Z,76.70
2019-05-07T21:56:15.942Z,69.22
2019-05-07T22:01:29.968Z,70.70
2019-05-07T22:06:33.571Z,81.47
2019-05-07T22:11:37.858Z,67.42
2019-05-07T22:16:43.659Z,73.42
2019-05-07T22:21:47.157Z,66.47
2019-05-07T22:26:50.879Z,59.88
2019-05-07T22:32:12.444Z,71.22
2019-05-07T22:37:17.240Z,71.75
2019-05-07T22:42:22.441Z,74.35
2019-05-07T22:47:25.813Z,71.17
2019-05-07T22:52:29.690Z,75.03
2019-05-07T22:57:52.581Z,96.08
2019-05-07T23:02:56.130Z,96.40
2019-05-07T23:08:02.204Z,106.90
2019-05-07T23:13:04.776Z,91.47
2019-05-07T23:18:08.566Z,100.75
2019-05-07T23:23:14.311Z,100.35
2019-05-07T23:28:18.861Z,95.67
2019-05-07T23:33:32.186Z,91.02
2019-05-07T23:38:35.778Z,75.50
2019-05-07T23:43:39.297Z,73.33
2019-05-07T23:48:43.445Z,80.03
2019-05-07T23:53:47.465Z,78.95
2019-05-07T23:58:52.596Z,79.47
